sensor_id;sensor_type;location;lat;lon;timestamp;pressure;altitude;pressure_sealevel;temperature;humidity
74466;BME280;62916;50.044;15.938;2022-09-01T00:00:48;99458.04;;;28.34;38.95
74466;BME280;62916;50.044;15.938;2022-09-01T00:03:20;99457.77;;;28.33;38.97
74466;BME280;62916;50.044;15.938;2022-09-01T00:05:52;99459.14;;;28.32;38.77
74466;BME280;62916;50.044;15.938;2022-09-01T00:08:25;99463.09;;;28.31;38.88
74466;BME280;62916;50.044;15.938;2022-09-01T00:10:56;99462.65;;;28.30;38.84
74466;BME280;62916;50.044;15.938;2022-09-01T00:13:27;99463.30;;;28.29;39.12
74466;BME280;62916;50.044;15.938;2022-09-01T00:16:02;99460.94;;;28.26;38.83
74466;BME280;62916;50.044;15.938;2022-09-01T00:18:33;99460.68;;;28.26;38.83
74466;BME280;62916;50.044;15.938;2022-09-01T00:21:04;99457.61;;;28.24;38.98
74466;BME280;62916;50.044;15.938;2022-09-01T00:23:35;99460.36;;;28.23;39.08
74466;BME280;62916;50.044;15.938;2022-09-01T00:26:06;99460.21;;;28.24;38.94
74466;BME280;62916;50.044;15.938;2022-09-01T00:28:38;99461.57;;;28.23;38.93
74466;BME280;62916;50.044;15.938;2022-09-01T00:31:09;99462.80;;;28.24;38.74
74466;BME280;62916;50.044;15.938;2022-09-01T00:33:40;99465.67;;;28.24;38.74
74466;BME280;62916;50.044;15.938;2022-09-01T00:36:11;99470.52;;;28.25;38.93
74466;BME280;62916;50.044;15.938;2022-09-01T00:38:43;99470.52;;;28.25;38.73
74466;BME280;62916;50.044;15.938;2022-09-01T00:41:15;99465.82;;;28.24;38.77
74466;BME280;62916;50.044;15.938;2022-09-01T00:43:49;99467.27;;;28.23;38.63
74466;BME280;62916;50.044;15.938;2022-09-01T00:46:22;99465.91;;;28.21;38.74
74466;BME280;62916;50.044;15.938;2022-09-01T00:49:00;99470.81;;;28.22;38.82
74466;BME280;62916;50.044;15.938;2022-09-01T00:51:34;99465.02;;;28.21;38.87
74466;BME280;62916;50.044;15.938;2022-09-01T00:54:07;99467.63;;;28.21;38.64
74466;BME280;62916;50.044;15.938;2022-09-01T00:56:43;99466.52;;;28.20;38.68
74466;BME280;62916;50.044;15.938;2022-09-01T00:59:23;99463.75;;;28.16;38.60
74466;BME280;62916;50.044;15.938;2022-09-01T01:01:56;99460.07;;;28.16;38.61
74466;BME280;62916;50.044;15.938;2022-09-01T01:04:27;99454.63;;;28.17;38.61
74466;BME280;62916;50.044;15.938;2022-09-01T01:06:58;99454.73;;;28.15;38.74
74466;BME280;62916;50.044;15.938;2022-09-01T01:09:34;99452.52;;;28.13;38.65
74466;BME280;62916;50.044;15.938;2022-09-01T01:12:08;99451.33;;;28.11;38.73
74466;BME280;62916;50.044;15.938;2022-09-01T01:14:42;99450.79;;;28.09;38.76
74466;BME280;62916;50.044;15.938;2022-09-01T01:17:15;99448.58;;;28.08;38.81
74466;BME280;62916;50.044;15.938;2022-09-01T01:19:47;99448.41;;;28.08;38.61
74466;BME280;62916;50.044;15.938;2022-09-01T01:22:41;99449.20;;;28.07;38.68
74466;BME280;62916;50.044;15.938;2022-09-01T01:25:33;99448.93;;;28.06;38.82
74466;BME280;62916;50.044;15.938;2022-09-01T01:28:04;99447.45;;;28.03;38.76
74466;BME280;62916;50.044;15.938;2022-09-01T01:30:36;99449.87;;;28.00;38.65
74466;BME280;62916;50.044;15.938;2022-09-01T01:33:08;99448.00;;;28.00;38.63
74466;BME280;62916;50.044;15.938;2022-09-01T01:35:39;99449.81;;;27.98;38.83
74466;BME280;62916;50.044;15.938;2022-09-01T01:38:12;99451.52;;;27.95;38.67
74466;BME280;62916;50.044;15.938;2022-09-01T01:40:44;99450.98;;;27.90;38.87
74466;BME280;62916;50.044;15.938;2022-09-01T01:43:16;99450.60;;;27.86;38.73
74466;BME280;62916;50.044;15.938;2022-09-01T01:45:49;99448.36;;;27.82;38.89
74466;BME280;62916;50.044;15.938;2022-09-01T01:48:22;99444.39;;;27.80;38.92
74466;BME280;62916;50.044;15.938;2022-09-01T01:50:54;99441.16;;;27.81;38.77
74466;BME280;62916;50.044;15.938;2022-09-01T01:53:26;99439.16;;;27.84;38.81
74466;BME280;62916;50.044;15.938;2022-09-01T01:55:58;99442.37;;;27.85;38.94
74466;BME280;62916;50.044;15.938;2022-09-01T01:58:29;99440.23;;;27.82;38.78
74466;BME280;62916;50.044;15.938;2022-09-01T02:01:00;99435.80;;;27.78;39.00
74466;BME280;62916;50.044;15.938;2022-09-01T02:03:33;99435.41;;;27.76;38.87
74466;BME280;62916;50.044;15.938;2022-09-01T02:06:09;99438.45;;;27.74;39.06
74466;BME280;62916;50.044;15.938;2022-09-01T02:08:39;99441.99;;;27.73;38.61
74466;BME280;62916;50.044;15.938;2022-09-01T02:11:10;99441.39;;;27.70;39.14
74466;BME280;62916;50.044;15.938;2022-09-01T02:13:42;99441.53;;;27.69;38.93
74466;BME280;62916;50.044;15.938;2022-09-01T02:16:15;99438.18;;;27.68;38.74
74466;BME280;62916;50.044;15.938;2022-09-01T02:18:46;99434.28;;;27.68;38.95
74466;BME280;62916;50.044;15.938;2022-09-01T02:21:20;99435.74;;;27.68;38.86
74466;BME280;62916;50.044;15.938;2022-09-01T02:23:53;99437.58;;;27.66;38.95
74466;BME280;62916;50.044;15.938;2022-09-01T02:26:31;99439.20;;;27.64;38.78
74466;BME280;62916;50.044;15.938;2022-09-01T02:29:05;99443.36;;;27.62;38.90
74466;BME280;62916;50.044;15.938;2022-09-01T02:31:38;99446.73;;;27.61;38.98
74466;BME280;62916;50.044;15.938;2022-09-01T02:34:09;99446.48;;;27.60;38.88
74466;BME280;62916;50.044;15.938;2022-09-01T02:36:45;99443.75;;;27.59;38.91
74466;BME280;62916;50.044;15.938;2022-09-01T02:39:18;99447.38;;;27.57;38.81
74466;BME280;62916;50.044;15.938;2022-09-01T02:41:51;99445.17;;;27.57;39.16
74466;BME280;62916;50.044;15.938;2022-09-01T02:44:23;99443.36;;;27.56;38.87
74466;BME280;62916;50.044;15.938;2022-09-01T02:46:56;99444.30;;;27.56;39.10
74466;BME280;62916;50.044;15.938;2022-09-01T02:49:30;99446.98;;;27.53;39.06
74466;BME280;62916;50.044;15.938;2022-09-01T02:52:02;99446.26;;;27.51;38.79
74466;BME280;62916;50.044;15.938;2022-09-01T02:54:33;99449.05;;;27.50;39.06
74466;BME280;62916;50.044;15.938;2022-09-01T02:57:05;99451.48;;;27.46;38.93
74466;BME280;62916;50.044;15.938;2022-09-01T02:59:37;99449.65;;;27.45;38.82
74466;BME280;62916;50.044;15.938;2022-09-01T03:02:12;99452.06;;;27.44;39.16
74466;BME280;62916;50.044;15.938;2022-09-01T03:04:43;99452.98;;;27.42;38.91
74466;BME280;62916;50.044;15.938;2022-09-01T03:07:14;99451.21;;;27.40;38.94
74466;BME280;62916;50.044;15.938;2022-09-01T03:09:46;99451.42;;;27.39;38.92
74466;BME280;62916;50.044;15.938;2022-09-01T03:12:17;99448.87;;;27.38;38.91
74466;BME280;62916;50.044;15.938;2022-09-01T03:14:48;99448.85;;;27.37;39.00
74466;BME280;62916;50.044;15.938;2022-09-01T03:17:19;99450.77;;;27.37;38.94
74466;BME280;62916;50.044;15.938;2022-09-01T03:19:50;99448.05;;;27.38;38.79
74466;BME280;62916;50.044;15.938;2022-09-01T03:22:21;99448.63;;;27.43;38.81
74466;BME280;62916;50.044;15.938;2022-09-01T03:24:52;99448.08;;;27.44;38.48
74466;BME280;62916;50.044;15.938;2022-09-01T03:27:24;99448.98;;;27.39;38.49
74466;BME280;62916;50.044;15.938;2022-09-01T03:29:55;99445.66;;;27.27;38.48
74466;BME280;62916;50.044;15.938;2022-09-01T03:32:27;99449.15;;;27.17;38.40
74466;BME280;62916;50.044;15.938;2022-09-01T03:34:57;99446.96;;;27.07;38.55
74466;BME280;62916;50.044;15.938;2022-09-01T03:37:28;99452.40;;;26.97;38.27
74466;BME280;62916;50.044;15.938;2022-09-01T03:39:59;99449.59;;;26.87;38.24
74466;BME280;62916;50.044;15.938;2022-09-01T03:42:32;99447.63;;;26.86;38.62
74466;BME280;62916;50.044;15.938;2022-09-01T03:45:05;99445.81;;;26.88;38.29
74466;BME280;62916;50.044;15.938;2022-09-01T03:47:41;99446.38;;;26.88;38.22
74466;BME280;62916;50.044;15.938;2022-09-01T03:50:14;99448.15;;;26.94;38.73
74466;BME280;62916;50.044;15.938;2022-09-01T03:52:49;99445.84;;;26.98;38.57
74466;BME280;62916;50.044;15.938;2022-09-01T03:55:23;99450.94;;;27.00;38.57
74466;BME280;62916;50.044;15.938;2022-09-01T03:57:57;99451.75;;;26.99;38.28
74466;BME280;62916;50.044;15.938;2022-09-01T04:00:29;99451.94;;;27.00;38.55
74466;BME280;62916;50.044;15.938;2022-09-01T04:03:01;99457.16;;;27.01;38.65
74466;BME280;62916;50.044;15.938;2022-09-01T04:05:33;99453.88;;;27.00;38.50
74466;BME280;62916;50.044;15.938;2022-09-01T04:08:07;99460.55;;;27.00;38.27
74466;BME280;62916;50.044;15.938;2022-09-01T04:10:44;99460.24;;;27.00;38.57
74466;BME280;62916;50.044;15.938;2022-09-01T04:13:24;99455.95;;;27.01;38.53
74466;BME280;62916;50.044;15.938;2022-09-01T04:15:57;99460.48;;;27.00;38.17
74466;BME280;62916;50.044;15.938;2022-09-01T04:18:28;99458.60;;;27.00;38.85
74466;BME280;62916;50.044;15.938;2022-09-01T04:20:59;99453.20;;;26.99;38.66
74466;BME280;62916;50.044;15.938;2022-09-01T04:23:32;99454.95;;;27.00;38.52
74466;BME280;62916;50.044;15.938;2022-09-01T04:26:05;99450.38;;;27.00;38.32
74466;BME280;62916;50.044;15.938;2022-09-01T04:28:41;99449.91;;;26.98;38.36
74466;BME280;62916;50.044;15.938;2022-09-01T04:31:15;99452.23;;;26.97;38.54
74466;BME280;62916;50.044;15.938;2022-09-01T04:33:49;99457.44;;;26.97;38.59
74466;BME280;62916;50.044;15.938;2022-09-01T04:36:22;99459.37;;;26.96;38.38
74466;BME280;62916;50.044;15.938;2022-09-01T04:38:56;99458.30;;;26.96;38.56
74466;BME280;62916;50.044;15.938;2022-09-01T04:41:31;99463.55;;;26.95;38.27
74466;BME280;62916;50.044;15.938;2022-09-01T04:44:04;99461.69;;;26.93;38.48
74466;BME280;62916;50.044;15.938;2022-09-01T04:46:38;99463.36;;;26.92;38.05
74466;BME280;62916;50.044;15.938;2022-09-01T04:49:10;99463.70;;;26.91;38.33
74466;BME280;62916;50.044;15.938;2022-09-01T04:51:50;99466.21;;;26.90;37.94
74466;BME280;62916;50.044;15.938;2022-09-01T04:54:23;99468.40;;;26.90;38.42
74466;BME280;62916;50.044;15.938;2022-09-01T04:56:55;99463.58;;;26.89;38.27
74466;BME280;62916;50.044;15.938;2022-09-01T04:59:26;99468.58;;;26.89;38.14
74466;BME280;62916;50.044;15.938;2022-09-01T05:01:58;99475.80;;;26.85;38.38
74466;BME280;62916;50.044;15.938;2022-09-01T05:04:31;99473.45;;;26.83;38.16
74466;BME280;62916;50.044;15.938;2022-09-01T05:07:03;99482.03;;;26.82;38.17
74466;BME280;62916;50.044;15.938;2022-09-01T05:09:37;99481.66;;;26.81;38.29
74466;BME280;62916;50.044;15.938;2022-09-01T05:12:08;99478.48;;;26.81;38.35
74466;BME280;62916;50.044;15.938;2022-09-01T05:14:46;99484.34;;;26.81;38.28
74466;BME280;62916;50.044;15.938;2022-09-01T05:17:18;99481.56;;;26.81;38.23
74466;BME280;62916;50.044;15.938;2022-09-01T05:19:50;99480.84;;;26.81;38.22
74466;BME280;62916;50.044;15.938;2022-09-01T05:22:21;99480.75;;;26.79;38.11
74466;BME280;62916;50.044;15.938;2022-09-01T05:24:52;99480.23;;;26.77;38.54
74466;BME280;62916;50.044;15.938;2022-09-01T05:27:24;99477.63;;;26.77;38.54
74466;BME280;62916;50.044;15.938;2022-09-01T05:29:55;99474.30;;;26.78;38.31
74466;BME280;62916;50.044;15.938;2022-09-01T05:32:27;99473.91;;;26.78;38.26
74466;BME280;62916;50.044;15.938;2022-09-01T05:34:57;99476.64;;;26.74;38.35
74466;BME280;62916;50.044;15.938;2022-09-01T05:37:30;99475.65;;;26.76;38.31
74466;BME280;62916;50.044;15.938;2022-09-01T05:40:04;99478.67;;;26.77;38.36
74466;BME280;62916;50.044;15.938;2022-09-01T05:42:40;99482.82;;;26.77;38.41
74466;BME280;62916;50.044;15.938;2022-09-01T05:45:11;99477.31;;;26.78;38.07
74466;BME280;62916;50.044;15.938;2022-09-01T05:47:42;99477.00;;;26.78;38.16
74466;BME280;62916;50.044;15.938;2022-09-01T05:50:15;99473.53;;;26.79;38.10
74466;BME280;62916;50.044;15.938;2022-09-01T05:52:47;99474.48;;;26.78;38.55
74466;BME280;62916;50.044;15.938;2022-09-01T05:55:19;99478.21;;;26.78;38.38
74466;BME280;62916;50.044;15.938;2022-09-01T05:57:51;99474.20;;;26.79;38.23
74466;BME280;62916;50.044;15.938;2022-09-01T06:00:23;99482.97;;;26.79;38.36
74466;BME280;62916;50.044;15.938;2022-09-01T06:03:03;99483.30;;;26.79;38.27
74466;BME280;62916;50.044;15.938;2022-09-01T06:05:38;99481.09;;;26.79;38.33
74466;BME280;62916;50.044;15.938;2022-09-01T06:08:10;99481.55;;;26.80;38.30
74466;BME280;62916;50.044;15.938;2022-09-01T06:10:44;99484.79;;;26.80;38.53
74466;BME280;62916;50.044;15.938;2022-09-01T06:13:18;99484.40;;;26.80;38.19
74466;BME280;62916;50.044;15.938;2022-09-01T06:15:56;99486.12;;;26.81;38.46
74466;BME280;62916;50.044;15.938;2022-09-01T06:18:27;99490.73;;;26.82;38.62
74466;BME280;62916;50.044;15.938;2022-09-01T06:20:58;99491.94;;;26.82;38.35
74466;BME280;62916;50.044;15.938;2022-09-01T06:23:29;99492.67;;;26.82;38.80
74466;BME280;62916;50.044;15.938;2022-09-01T06:26:01;99493.77;;;26.83;38.51
74466;BME280;62916;50.044;15.938;2022-09-01T06:28:32;99498.52;;;26.84;38.47
74466;BME280;62916;50.044;15.938;2022-09-01T06:31:07;99496.17;;;26.84;38.63
74466;BME280;62916;50.044;15.938;2022-09-01T06:33:40;99492.14;;;26.85;38.42
74466;BME280;62916;50.044;15.938;2022-09-01T06:36:11;99489.60;;;26.85;39.08
74466;BME280;62916;50.044;15.938;2022-09-01T06:38:43;99488.59;;;26.86;38.55
74466;BME280;62916;50.044;15.938;2022-09-01T06:41:15;99488.52;;;26.86;38.68
74466;BME280;62916;50.044;15.938;2022-09-01T06:43:48;99489.35;;;26.87;38.81
74466;BME280;62916;50.044;15.938;2022-09-01T06:46:21;99493.48;;;26.89;38.77
74466;BME280;62916;50.044;15.938;2022-09-01T06:48:56;99492.84;;;26.91;38.77
74466;BME280;62916;50.044;15.938;2022-09-01T06:51:28;99493.53;;;26.92;38.77
74466;BME280;62916;50.044;15.938;2022-09-01T06:54:00;99493.20;;;26.94;38.93
74466;BME280;62916;50.044;15.938;2022-09-01T06:56:32;99493.73;;;26.95;38.64
74466;BME280;62916;50.044;15.938;2022-09-01T06:59:13;99491.45;;;26.95;38.81
74466;BME280;62916;50.044;15.938;2022-09-01T07:01:45;99495.95;;;26.95;38.87
74466;BME280;62916;50.044;15.938;2022-09-01T07:04:18;99488.74;;;26.97;38.59
74466;BME280;62916;50.044;15.938;2022-09-01T07:06:49;99488.42;;;26.96;38.69
74466;BME280;62916;50.044;15.938;2022-09-01T07:09:30;99489.54;;;26.99;38.61
74466;BME280;62916;50.044;15.938;2022-09-01T07:12:21;99490.96;;;27.00;38.94
74466;BME280;62916;50.044;15.938;2022-09-01T07:14:54;99488.00;;;27.01;38.75
74466;BME280;62916;50.044;15.938;2022-09-01T07:17:49;99484.94;;;27.02;38.99
74466;BME280;62916;50.044;15.938;2022-09-01T07:20:23;99488.50;;;27.01;38.79
74466;BME280;62916;50.044;15.938;2022-09-01T07:22:53;99489.36;;;27.02;38.80
74466;BME280;62916;50.044;15.938;2022-09-01T07:25:33;99490.14;;;27.02;38.74
74466;BME280;62916;50.044;15.938;2022-09-01T07:28:27;99488.23;;;27.03;38.69
74466;BME280;62916;50.044;15.938;2022-09-01T07:31:22;99491.92;;;27.04;38.80
74466;BME280;62916;50.044;15.938;2022-09-01T07:34:14;99490.55;;;27.04;39.00
74466;BME280;62916;50.044;15.938;2022-09-01T07:37:03;99495.70;;;27.07;38.62
74466;BME280;62916;50.044;15.938;2022-09-01T07:39:54;99499.23;;;27.06;38.53
74466;BME280;62916;50.044;15.938;2022-09-01T07:42:47;99497.64;;;27.07;38.51
74466;BME280;62916;50.044;15.938;2022-09-01T07:45:34;99499.15;;;27.09;38.61
74466;BME280;62916;50.044;15.938;2022-09-01T07:48:17;99501.19;;;27.09;38.66
74466;BME280;62916;50.044;15.938;2022-09-01T07:51:10;99499.17;;;27.09;38.68
74466;BME280;62916;50.044;15.938;2022-09-01T07:54:01;99497.70;;;27.11;38.59
74466;BME280;62916;50.044;15.938;2022-09-01T07:56:32;99499.20;;;27.13;38.76
74466;BME280;62916;50.044;15.938;2022-09-01T07:59:09;99501.77;;;27.14;38.17
74466;BME280;62916;50.044;15.938;2022-09-01T08:01:43;99498.59;;;27.14;38.36
74466;BME280;62916;50.044;15.938;2022-09-01T08:04:15;99496.63;;;27.13;38.27
74466;BME280;62916;50.044;15.938;2022-09-01T08:06:51;99496.84;;;27.15;38.38
74466;BME280;62916;50.044;15.938;2022-09-01T08:09:24;99495.65;;;27.16;38.29
74466;BME280;62916;50.044;15.938;2022-09-01T08:12:12;99492.84;;;27.16;38.43
74466;BME280;62916;50.044;15.938;2022-09-01T08:14:43;99495.63;;;27.17;38.34
74466;BME280;62916;50.044;15.938;2022-09-01T08:17:15;99499.89;;;27.21;38.32
74466;BME280;62916;50.044;15.938;2022-09-01T08:20:04;99503.45;;;27.23;38.09
74466;BME280;62916;50.044;15.938;2022-09-01T08:22:41;99507.70;;;27.26;38.30
74466;BME280;62916;50.044;15.938;2022-09-01T08:25:12;99506.96;;;27.28;38.20
74466;BME280;62916;50.044;15.938;2022-09-01T08:27:44;99509.29;;;27.29;38.28
74466;BME280;62916;50.044;15.938;2022-09-01T08:30:15;99504.72;;;27.29;37.95
74466;BME280;62916;50.044;15.938;2022-09-01T08:32:46;99504.31;;;27.29;38.03
74466;BME280;62916;50.044;15.938;2022-09-01T08:35:18;99505.73;;;27.31;38.03
74466;BME280;62916;50.044;15.938;2022-09-01T08:37:49;99501.77;;;27.31;38.10
74466;BME280;62916;50.044;15.938;2022-09-01T08:40:21;99502.50;;;27.33;37.93
74466;BME280;62916;50.044;15.938;2022-09-01T08:43:01;99502.72;;;27.35;37.84
74466;BME280;62916;50.044;15.938;2022-09-01T08:45:45;99501.48;;;27.37;38.01
74466;BME280;62916;50.044;15.938;2022-09-01T08:48:20;99502.23;;;27.40;37.83
74466;BME280;62916;50.044;15.938;2022-09-01T08:51:15;99499.80;;;27.41;37.91
74466;BME280;62916;50.044;15.938;2022-09-01T08:53:55;99499.55;;;27.40;37.78
74466;BME280;62916;50.044;15.938;2022-09-01T08:56:27;99496.41;;;27.41;37.82
74466;BME280;62916;50.044;15.938;2022-09-01T08:58:58;99494.48;;;27.40;37.80
74466;BME280;62916;50.044;15.938;2022-09-01T09:01:37;99491.08;;;27.40;37.83
74466;BME280;62916;50.044;15.938;2022-09-01T09:04:25;99492.44;;;27.42;37.66
74466;BME280;62916;50.044;15.938;2022-09-01T09:07:04;99498.79;;;27.46;37.70
74466;BME280;62916;50.044;15.938;2022-09-01T09:09:45;99494.73;;;27.47;37.43
74466;BME280;62916;50.044;15.938;2022-09-01T09:12:34;99496.48;;;27.46;37.80
74466;BME280;62916;50.044;15.938;2022-09-01T09:15:23;99496.98;;;27.49;37.73
74466;BME280;62916;50.044;15.938;2022-09-01T09:18:08;99494.95;;;27.52;37.78
74466;BME280;62916;50.044;15.938;2022-09-01T09:21:07;99488.00;;;27.53;37.32
74466;BME280;62916;50.044;15.938;2022-09-01T09:23:40;99488.15;;;27.53;37.60
74466;BME280;62916;50.044;15.938;2022-09-01T09:26:13;99486.11;;;27.56;37.54
74466;BME280;62916;50.044;15.938;2022-09-01T09:28:50;99482.83;;;27.59;37.68
74466;BME280;62916;50.044;15.938;2022-09-01T09:31:28;99479.15;;;27.61;37.77
74466;BME280;62916;50.044;15.938;2022-09-01T09:34:00;99476.75;;;27.62;37.56
74466;BME280;62916;50.044;15.938;2022-09-01T09:36:34;99477.63;;;27.64;37.69
74466;BME280;62916;50.044;15.938;2022-09-01T09:39:09;99475.84;;;27.67;37.76
74466;BME280;62916;50.044;15.938;2022-09-01T09:41:41;99474.02;;;27.69;37.48
74466;BME280;62916;50.044;15.938;2022-09-01T09:44:24;99474.06;;;27.70;37.44
74466;BME280;62916;50.044;15.938;2022-09-01T09:46:57;99474.56;;;27.70;37.30
74466;BME280;62916;50.044;15.938;2022-09-01T09:49:29;99476.44;;;27.70;37.44
74466;BME280;62916;50.044;15.938;2022-09-01T09:52:17;99474.91;;;27.71;37.29
74466;BME280;62916;50.044;15.938;2022-09-01T09:55:03;99476.82;;;27.72;37.17
74466;BME280;62916;50.044;15.938;2022-09-01T09:57:39;99473.23;;;27.70;37.18
74466;BME280;62916;50.044;15.938;2022-09-01T10:00:20;99475.63;;;27.68;37.33
74466;BME280;62916;50.044;15.938;2022-09-01T10:02:58;99477.98;;;27.65;37.48
74466;BME280;62916;50.044;15.938;2022-09-01T10:05:39;99478.34;;;27.63;37.45
74466;BME280;62916;50.044;15.938;2022-09-01T10:08:13;99480.05;;;27.63;37.63
74466;BME280;62916;50.044;15.938;2022-09-01T10:11:06;99482.69;;;27.62;37.54
74466;BME280;62916;50.044;15.938;2022-09-01T10:13:37;99485.59;;;27.61;37.38
74466;BME280;62916;50.044;15.938;2022-09-01T10:16:18;99481.56;;;27.60;37.36
74466;BME280;62916;50.044;15.938;2022-09-01T10:18:56;99487.89;;;27.59;37.37
74466;BME280;62916;50.044;15.938;2022-09-01T10:21:34;99487.08;;;27.60;37.40
74466;BME280;62916;50.044;15.938;2022-09-01T10:24:14;99490.31;;;27.59;37.26
74466;BME280;62916;50.044;15.938;2022-09-01T10:26:52;99487.13;;;27.58;37.59
74466;BME280;62916;50.044;15.938;2022-09-01T10:29:26;99487.95;;;27.58;37.38
74466;BME280;62916;50.044;15.938;2022-09-01T10:32:07;99483.14;;;27.58;37.20
74466;BME280;62916;50.044;15.938;2022-09-01T10:35:00;99488.67;;;27.58;37.17
74466;BME280;62916;50.044;15.938;2022-09-01T10:37:34;99485.20;;;27.59;37.13
74466;BME280;62916;50.044;15.938;2022-09-01T10:40:15;99488.15;;;27.60;37.31
74466;BME280;62916;50.044;15.938;2022-09-01T10:42:50;99481.76;;;27.59;37.19
74466;BME280;62916;50.044;15.938;2022-09-01T10:45:33;99485.85;;;27.64;37.10
74466;BME280;62916;50.044;15.938;2022-09-01T10:48:27;99487.17;;;27.65;37.18
74466;BME280;62916;50.044;15.938;2022-09-01T10:54:53;99487.84;;;27.60;37.23
74466;BME280;62916;50.044;15.938;2022-09-01T10:57:49;99485.86;;;27.60;37.04
74466;BME280;62916;50.044;15.938;2022-09-01T11:00:48;99483.34;;;27.57;37.17
74466;BME280;62916;50.044;15.938;2022-09-01T11:03:54;99481.19;;;27.59;37.18
74466;BME280;62916;50.044;15.938;2022-09-01T11:06:58;99482.48;;;27.58;37.14
74466;BME280;62916;50.044;15.938;2022-09-01T11:10:14;99477.95;;;27.60;36.93
74466;BME280;62916;50.044;15.938;2022-09-01T11:13:23;99478.41;;;27.61;36.95
74466;BME280;62916;50.044;15.938;2022-09-01T11:16:26;99475.85;;;27.62;37.08
74466;BME280;62916;50.044;15.938;2022-09-01T11:19:35;99480.10;;;27.63;37.17
74466;BME280;62916;50.044;15.938;2022-09-01T11:22:17;99480.62;;;27.63;37.03
74466;BME280;62916;50.044;15.938;2022-09-01T11:25:29;99480.98;;;27.64;36.87
74466;BME280;62916;50.044;15.938;2022-09-01T11:31:31;99481.93;;;27.66;36.80
74466;BME280;62916;50.044;15.938;2022-09-01T11:34:16;99480.48;;;27.66;36.89
74466;BME280;62916;50.044;15.938;2022-09-01T11:36:52;99479.64;;;27.66;36.92
74466;BME280;62916;50.044;15.938;2022-09-01T11:39:32;99480.83;;;27.68;36.79
74466;BME280;62916;50.044;15.938;2022-09-01T11:42:10;99481.40;;;27.67;36.96
74466;BME280;62916;50.044;15.938;2022-09-01T11:44:47;99477.21;;;27.70;36.37
74466;BME280;62916;50.044;15.938;2022-09-01T11:47:21;99475.79;;;27.71;36.70
74466;BME280;62916;50.044;15.938;2022-09-01T11:49:57;99473.66;;;27.73;36.62
74466;BME280;62916;50.044;15.938;2022-09-01T11:52:31;99470.45;;;27.74;36.85
74466;BME280;62916;50.044;15.938;2022-09-01T11:55:07;99466.77;;;27.73;36.59
74466;BME280;62916;50.044;15.938;2022-09-01T11:57:40;99469.66;;;27.78;36.41
74466;BME280;62916;50.044;15.938;2022-09-01T12:00:15;99461.27;;;27.77;36.63
74466;BME280;62916;50.044;15.938;2022-09-01T12:02:54;99463.16;;;27.78;36.33
74466;BME280;62916;50.044;15.938;2022-09-01T12:05:32;99457.06;;;27.79;36.37
74466;BME280;62916;50.044;15.938;2022-09-01T12:08:05;99457.28;;;27.77;36.41
74466;BME280;62916;50.044;15.938;2022-09-01T12:10:42;99451.48;;;27.76;36.31
74466;BME280;62916;50.044;15.938;2022-09-01T12:13:20;99454.48;;;27.76;36.35
74466;BME280;62916;50.044;15.938;2022-09-01T12:15:56;99452.52;;;27.76;36.22
74466;BME280;62916;50.044;15.938;2022-09-01T12:18:48;99448.52;;;27.75;36.37
74466;BME280;62916;50.044;15.938;2022-09-01T12:21:22;99443.92;;;27.75;36.31
74466;BME280;62916;50.044;15.938;2022-09-01T12:23:54;99439.70;;;27.73;36.27
74466;BME280;62916;50.044;15.938;2022-09-01T12:26:39;99439.23;;;27.70;36.57
74466;BME280;62916;50.044;15.938;2022-09-01T12:29:11;99440.52;;;27.70;36.54
74466;BME280;62916;50.044;15.938;2022-09-01T12:31:44;99443.27;;;27.69;36.50
74466;BME280;62916;50.044;15.938;2022-09-01T12:34:35;99445.45;;;27.69;36.35
74466;BME280;62916;50.044;15.938;2022-09-01T12:37:10;99445.00;;;27.67;36.44
74466;BME280;62916;50.044;15.938;2022-09-01T12:39:43;99444.80;;;27.69;36.33
74466;BME280;62916;50.044;15.938;2022-09-01T12:42:25;99443.13;;;27.68;36.39
74466;BME280;62916;50.044;15.938;2022-09-01T12:44:58;99441.70;;;27.68;36.25
74466;BME280;62916;50.044;15.938;2022-09-01T12:47:50;99443.73;;;27.68;36.25
74466;BME280;62916;50.044;15.938;2022-09-01T12:50:49;99446.80;;;27.71;36.38
74466;BME280;62916;50.044;15.938;2022-09-01T12:53:24;99448.20;;;27.71;36.17
74466;BME280;62916;50.044;15.938;2022-09-01T12:56:20;99446.16;;;27.71;36.00
74466;BME280;62916;50.044;15.938;2022-09-01T12:59:04;99447.75;;;27.70;36.08
74466;BME280;62916;50.044;15.938;2022-09-01T13:01:44;99447.80;;;27.69;36.06
74466;BME280;62916;50.044;15.938;2022-09-01T13:04:24;99449.36;;;27.69;36.08
74466;BME280;62916;50.044;15.938;2022-09-01T13:06:59;99446.11;;;27.69;36.08
74466;BME280;62916;50.044;15.938;2022-09-01T13:09:30;99444.14;;;27.68;35.81
74466;BME280;62916;50.044;15.938;2022-09-01T13:12:12;99439.75;;;27.69;35.88
74466;BME280;62916;50.044;15.938;2022-09-01T13:14:45;99439.27;;;27.69;36.08
74466;BME280;62916;50.044;15.938;2022-09-01T13:17:16;99433.86;;;27.68;36.03
74466;BME280;62916;50.044;15.938;2022-09-01T13:19:47;99436.92;;;27.67;36.01
74466;BME280;62916;50.044;15.938;2022-09-01T13:22:18;99439.61;;;27.66;35.82
74466;BME280;62916;50.044;15.938;2022-09-01T13:24:49;99433.10;;;27.64;35.90
74466;BME280;62916;50.044;15.938;2022-09-01T13:27:20;99437.48;;;27.66;35.92
74466;BME280;62916;50.044;15.938;2022-09-01T13:29:52;99435.52;;;27.66;35.78
74466;BME280;62916;50.044;15.938;2022-09-01T13:32:24;99432.30;;;27.67;35.94
74466;BME280;62916;50.044;15.938;2022-09-01T13:34:55;99433.96;;;27.69;35.55
74466;BME280;62916;50.044;15.938;2022-09-01T13:37:26;99436.27;;;27.69;35.78
74466;BME280;62916;50.044;15.938;2022-09-01T13:39:57;99438.50;;;27.68;35.78
74466;BME280;62916;50.044;15.938;2022-09-01T13:42:30;99440.61;;;27.67;35.80
74466;BME280;62916;50.044;15.938;2022-09-01T13:45:01;99443.82;;;27.66;35.70